createdAt,value
2018-12-29T00:00:19.905Z,21.9
2018-12-29T00:01:09.511Z,21.9
2018-12-29T00:01:59.783Z,21.9
2018-12-29T00:02:50.898Z,22
2018-12-29T00:03:39.368Z,22
2018-12-29T00:04:29.675Z,22
2018-12-29T00:05:20.243Z,22
2018-12-29T00:06:10.853Z,22
2018-12-29T00:07:00.375Z,22
2018-12-29T00:07:49.893Z,22
2018-12-29T00:08:40.193Z,21.9
2018-12-29T00:09:31.085Z,21.9
2018-12-29T00:10:20.095Z,21.9
2018-12-29T00:11:10.393Z,21.9
2018-12-29T00:12:00.008Z,21.9
2018-12-29T00:12:49.688Z,21.9
2018-12-29T00:13:41.380Z,21.9
2018-12-29T00:14:31.180Z,21.9
2018-12-29T00:15:20.931Z,21.9
2018-12-29T00:33:25.454Z,22.1
2018-12-29T00:34:16.089Z,22.1
2018-12-29T00:35:06.207Z,22
2018-12-29T00:35:55.946Z,22
2018-12-29T00:36:45.952Z,22
2018-12-29T00:37:35.744Z,21.9
2018-12-29T00:38:26.642Z,21.9
2018-12-29T00:39:16.700Z,21.9
2018-12-29T00:40:06.549Z,21.9
2018-12-29T00:40:55.171Z,21.9
2018-12-29T00:41:46.841Z,21.9
2018-12-29T00:42:36.389Z,21.8
2018-12-29T00:43:26.024Z,21.8
2018-12-29T00:44:16.485Z,21.8
2018-12-29T00:45:09.054Z,21.8
2018-12-29T00:45:55.519Z,21.8
2018-12-29T00:46:45.316Z,21.8
2018-12-29T00:47:36.979Z,21.8
2018-12-29T00:48:26.023Z,21.8
2018-12-29T00:49:17.094Z,21.8
2018-12-29T00:50:06.159Z,21.8
2018-12-29T00:50:56.666Z,21.8
2018-12-29T00:51:45.966Z,21.8
2018-12-29T00:52:36.494Z,21.8
2018-12-29T00:53:25.793Z,21.9
2018-12-29T00:54:16.950Z,21.9
2018-12-29T00:55:06.788Z,21.9
2018-12-29T00:55:56.800Z,22
2018-12-29T00:56:47.668Z,22
2018-12-29T00:57:35.798Z,22
2018-12-29T00:58:26.973Z,22
2018-12-29T00:59:17.568Z,22.1
2018-12-29T01:00:07.215Z,22.1
2018-12-29T01:00:57.419Z,22.1
2018-12-29T01:01:47.174Z,22.1
2018-12-29T01:02:37.270Z,22.1
2018-12-29T01:03:27.049Z,22
2018-12-29T01:04:17.620Z,22
2018-12-29T01:05:07.253Z,22
2018-12-29T01:05:57.010Z,22
2018-12-29T01:06:47.792Z,21.9
2018-12-29T01:07:36.845Z,21.9
2018-12-29T01:08:27.455Z,21.9
2018-12-29T01:09:17.210Z,21.9
2018-12-29T01:10:08.646Z,21.9
2018-12-29T01:10:58.877Z,21.9
2018-12-29T01:11:48.245Z,21.8
2018-12-29T01:12:37.971Z,21.8
2018-12-29T01:13:27.450Z,21.8
2018-12-29T01:14:18.572Z,21.8
2018-12-29T01:15:16.152Z,21.8
2018-12-29T01:15:58.278Z,21.8
2018-12-29T01:16:47.962Z,21.8
2018-12-29T01:17:38.014Z,21.8
2018-12-29T01:18:28.629Z,21.8
2018-12-29T01:19:19.209Z,21.8
2018-12-29T01:20:09.540Z,21.9
2018-12-29T01:20:58.305Z,21.8
2018-12-29T01:21:48.586Z,21.9
2018-12-29T01:22:39.109Z,21.9
2018-12-29T01:23:29.345Z,21.9
2018-12-29T01:24:18.958Z,21.9
2018-12-29T01:25:09.262Z,21.9
2018-12-29T01:25:59.047Z,22
2018-12-29T01:26:49.206Z,22
2018-12-29T01:27:38.619Z,22
2018-12-29T01:28:28.436Z,22.1
2018-12-29T01:29:18.261Z,22.1
2018-12-29T01:30:10.236Z,22.1
2018-12-29T01:30:59.659Z,22.1
2018-12-29T01:31:50.314Z,22.1
2018-12-29T01:32:40.091Z,22.1
2018-12-29T01:33:29.944Z,22
2018-12-29T01:34:20.004Z,22
2018-12-29T01:35:10.786Z,22
2018-12-29T01:35:59.718Z,21.9
2018-12-29T01:36:50.104Z,21.9
2018-12-29T01:37:39.961Z,21.9
2018-12-29T01:38:29.928Z,21.9
2018-12-29T01:39:19.990Z,21.9
2018-12-29T01:40:09.773Z,21.8
2018-12-29T01:41:00.358Z,21.8
2018-12-29T01:41:50.443Z,21.8
2018-12-29T01:42:40.515Z,21.8
2018-12-29T01:43:30.578Z,21.8
2018-12-29T01:44:20.966Z,21.8
2018-12-29T01:45:18.393Z,21.8
2018-12-29T01:46:00.210Z,21.8
2018-12-29T01:46:49.683Z,21.8
2018-12-29T01:47:40.018Z,21.8
2018-12-29T01:48:31.180Z,21.8
2018-12-29T01:49:20.955Z,21.9
2018-12-29T01:50:10.838Z,21.9
2018-12-29T01:51:01.975Z,21.9
2018-12-29T01:51:50.922Z,21.9
2018-12-29T01:52:40.390Z,21.9
2018-12-29T01:53:30.741Z,21.9
2018-12-29T01:54:21.574Z,22
2018-12-29T01:55:10.611Z,22
2018-12-29T01:56:01.135Z,22
2018-12-29T01:56:50.360Z,22.1
2018-12-29T01:57:40.974Z,22.1
2018-12-29T01:58:31.891Z,22.1
2018-12-29T01:59:20.812Z,22.1
2018-12-29T02:00:11.687Z,22.1
2018-12-29T02:01:01.602Z,22.1
2018-12-29T02:01:51.495Z,22.1
2018-12-29T02:02:41.597Z,22
2018-12-29T02:03:32.203Z,22
2018-12-29T02:04:22.025Z,22
2018-12-29T02:05:12.037Z,22
2018-12-29T02:06:01.863Z,21.9
2018-12-29T02:06:52.737Z,21.9
2018-12-29T02:07:41.686Z,21.9
2018-12-29T02:08:32.562Z,21.9
2018-12-29T02:09:22.669Z,21.9
2018-12-29T02:10:11.651Z,21.9
2018-12-29T02:11:01.890Z,21.9
2018-12-29T02:11:53.549Z,21.8
2018-12-29T02:12:42.617Z,21.8
2018-12-29T02:13:32.322Z,21.8
2018-12-29T02:14:22.681Z,21.8
2018-12-29T02:15:12.744Z,21.8
2018-12-29T02:16:02.604Z,21.8
2018-12-29T02:16:53.399Z,21.8
2018-12-29T02:17:42.401Z,21.9
2018-12-29T02:18:31.884Z,21.9
2018-12-29T02:19:22.466Z,21.9
2018-12-29T02:20:13.344Z,21.9
2018-12-29T02:21:02.080Z,21.9
2018-12-29T02:21:52.617Z,22
2018-12-29T02:22:43.232Z,21.9
2018-12-29T02:23:33.308Z,22
2018-12-29T02:24:22.536Z,22
2018-12-29T02:25:13.413Z,22.1
2018-12-29T02:26:03.591Z,22.1
2018-12-29T02:26:53.555Z,22.1
2018-12-29T02:27:44.079Z,22.1
2018-12-29T02:28:33.105Z,22.1
2018-12-29T02:29:23.442Z,22.1
2018-12-29T02:30:13.895Z,22.1
2018-12-29T02:31:03.334Z,22.1
2018-12-29T02:31:54.725Z,22.1
2018-12-29T02:32:43.753Z,22
2018-12-29T02:33:33.822Z,22
2018-12-29T02:34:24.424Z,21.9
2018-12-29T02:35:13.295Z,21.9
2018-12-29T02:36:03.792Z,21.9
2018-12-29T02:36:54.267Z,21.9
2018-12-29T02:37:43.551Z,21.8
2018-12-29T02:38:34.405Z,21.9
2018-12-29T02:39:24.157Z,21.8
2018-12-29T02:40:14.242Z,21.8
2018-12-29T02:41:04.365Z,21.8
2018-12-29T02:41:55.198Z,21.8
2018-12-29T02:42:44.361Z,21.8
2018-12-29T02:43:34.207Z,21.8
2018-12-29T02:44:25.068Z,21.9
2018-12-29T02:45:15.456Z,21.9
2018-12-29T02:46:04.399Z,21.9
2018-12-29T02:46:54.952Z,21.9
2018-12-29T02:47:44.184Z,21.9
2018-12-29T02:48:35.343Z,21.9
2018-12-29T02:49:25.115Z,21.9
2018-12-29T02:50:15.301Z,21.9
2018-12-29T02:51:04.259Z,21.9
2018-12-29T02:51:55.345Z,21.8
2018-12-29T02:52:44.741Z,21.8
2018-12-29T02:53:35.506Z,21.8
2018-12-29T02:54:25.012Z,21.8
2018-12-29T02:55:15.813Z,21.8
2018-12-29T02:56:06.116Z,21.8
2018-12-29T02:56:56.206Z,21.8
2018-12-29T02:57:45.421Z,21.7
2018-12-29T02:58:35.688Z,21.7
2018-12-29T02:59:25.216Z,21.7
2018-12-29T03:00:15.928Z,21.8
2018-12-29T03:01:05.431Z,21.8
2018-12-29T03:01:56.538Z,21.8
2018-12-29T03:02:45.451Z,21.8
2018-12-29T03:03:36.100Z,21.8
2018-12-29T03:04:26.448Z,21.9
2018-12-29T03:05:16.194Z,21.9
2018-12-29T03:06:06.543Z,21.9
2018-12-29T03:06:55.788Z,21.9
2018-12-29T03:07:46.653Z,21.9
2018-12-29T03:08:36.533Z,22
2018-12-29T03:09:26.245Z,22
2018-12-29T03:10:16.578Z,22
2018-12-29T03:11:06.319Z,22.1
2018-12-29T03:11:56.547Z,22.1
2018-12-29T03:12:46.259Z,22
2018-12-29T03:13:36.825Z,22
2018-12-29T03:14:27.231Z,22
2018-12-29T03:15:16.452Z,21.9
2018-12-29T03:16:06.792Z,21.9
2018-12-29T03:16:56.829Z,21.9
2018-12-29T03:17:46.598Z,21.9
2018-12-29T03:18:36.361Z,21.9
2018-12-29T03:19:27.214Z,21.9
2018-12-29T03:20:16.776Z,21.9
2018-12-29T03:21:07.073Z,21.9
2018-12-29T03:21:57.002Z,21.9
2018-12-29T03:22:46.695Z,21.8
2018-12-29T03:23:36.464Z,21.8
2018-12-29T03:24:27.000Z,21.8
2018-12-29T03:25:17.622Z,21.8
2018-12-29T03:26:07.482Z,21.8
2018-12-29T03:26:56.642Z,21.9
2018-12-29T03:27:46.504Z,21.9
2018-12-29T03:28:37.642Z,21.9
2018-12-29T03:29:27.322Z,21.9
2018-12-29T03:30:18.135Z,21.9
2018-12-29T03:31:08.508Z,21.9
2018-12-29T03:31:57.952Z,21.9
2018-12-29T03:32:47.610Z,21.9
2018-12-29T03:33:38.466Z,22
2018-12-29T03:34:28.011Z,22
2018-12-29T03:35:18.618Z,22.1
2018-12-29T03:36:07.307Z,22.1
2018-12-29T03:36:58.630Z,22.1
2018-12-29T03:37:48.302Z,22.1
2018-12-29T03:38:37.726Z,22.1
2018-12-29T03:39:28.679Z,22.1
2018-12-29T03:40:18.324Z,22.1
2018-12-29T03:41:08.394Z,22.1
2018-12-29T03:41:57.414Z,22.1
2018-12-29T03:42:48.304Z,22.1
2018-12-29T03:43:38.654Z,22.1
2018-12-29T03:44:28.116Z,22.1
2018-12-29T03:45:18.938Z,22
2018-12-29T03:46:08.726Z,22
2018-12-29T03:46:57.705Z,21.9
2018-12-29T03:47:49.065Z,21.9
2018-12-29T03:48:38.438Z,21.9
2018-12-29T03:49:29.249Z,21.9
2018-12-29T03:50:19.605Z,21.9
2018-12-29T03:51:09.054Z,21.9
2018-12-29T03:51:59.418Z,21.8
2018-12-29T03:52:47.787Z,21.8
2018-12-29T03:53:39.804Z,21.8
2018-12-29T03:54:28.790Z,21.8
2018-12-29T03:55:19.989Z,21.8
2018-12-29T03:56:09.202Z,21.8
2018-12-29T03:56:59.468Z,21.8
2018-12-29T03:57:50.380Z,21.9
2018-12-29T03:58:40.203Z,21.9
2018-12-29T03:59:29.972Z,21.9
2018-12-29T04:00:20.338Z,21.9
2018-12-29T04:01:09.774Z,21.9
2018-12-29T04:01:59.575Z,21.9
2018-12-29T04:02:49.978Z,21.9
2018-12-29T04:03:39.940Z,22
2018-12-29T04:04:30.697Z,22
2018-12-29T04:05:20.332Z,22
2018-12-29T04:06:09.856Z,22.1
2018-12-29T04:07:00.467Z,22.1
2018-12-29T04:07:50.227Z,22.1
2018-12-29T04:08:40.841Z,22.1
2018-12-29T04:09:30.386Z,22.1
2018-12-29T04:10:21.190Z,22.1
2018-12-29T04:11:10.792Z,22.1
2018-12-29T04:12:00.764Z,22.1
2018-12-29T04:12:50.886Z,22.1
2018-12-29T04:13:40.813Z,22.1
2018-12-29T04:14:31.269Z,22.1
2018-12-29T04:15:21.044Z,22.1
2018-12-29T04:16:11.609Z,22
2018-12-29T04:17:01.463Z,22
2018-12-29T04:17:51.202Z,22
2018-12-29T04:18:41.947Z,21.9
2018-12-29T04:19:31.381Z,21.9
2018-12-29T04:20:21.458Z,21.9
2018-12-29T04:21:11.089Z,21.9
2018-12-29T04:22:01.219Z,21.9
2018-12-29T04:22:51.587Z,21.8
2018-12-29T04:23:41.069Z,21.8
2018-12-29T04:24:30.863Z,21.8
2018-12-29T04:25:22.929Z,21.8
2018-12-29T04:26:11.476Z,21.8
2018-12-29T04:27:02.078Z,21.8
2018-12-29T04:27:51.021Z,21.8
2018-12-29T04:28:40.243Z,21.9
2018-12-29T04:29:30.874Z,21.9
2018-12-29T04:30:22.398Z,21.9
2018-12-29T04:31:12.381Z,21.9
2018-12-29T04:32:01.632Z,21.9
2018-12-29T04:32:52.233Z,22
2018-12-29T04:33:41.143Z,22
2018-12-29T04:34:31.771Z,22
2018-12-29T04:35:21.963Z,22.1
2018-12-29T04:36:12.208Z,22.1
2018-12-29T04:37:01.943Z,22.1
2018-12-29T04:37:52.040Z,22.1
2018-12-29T04:38:41.333Z,22.1
2018-12-29T04:39:31.886Z,22.1
2018-12-29T04:40:22.503Z,22.1
2018-12-29T04:41:12.510Z,22.1
2018-12-29T04:42:01.818Z,22.1
2018-12-29T04:42:51.859Z,22.1
2018-12-29T04:43:42.721Z,22.1
2018-12-29T04:44:31.957Z,22
2018-12-29T04:45:23.373Z,22
2018-12-29T05:02:40.849Z,21.9
2018-12-29T05:03:30.624Z,22
2018-12-29T05:04:19.537Z,22
2018-12-29T05:05:10.414Z,22
2018-12-29T05:05:59.896Z,21.9
2018-12-29T05:06:50.577Z,21.9
2018-12-29T05:07:41.431Z,21.9
2018-12-29T05:08:31.173Z,21.9
2018-12-29T05:09:20.967Z,21.8
2018-12-29T05:10:10.753Z,21.8
2018-12-29T05:11:00.821Z,21.8
2018-12-29T05:11:50.851Z,21.8
2018-12-29T05:12:40.906Z,21.8
2018-12-29T05:13:30.390Z,21.8
2018-12-29T05:14:20.455Z,21.8
2018-12-29T05:15:10.806Z,21.8
2018-12-29T05:16:01.414Z,21.9
2018-12-29T05:16:50.920Z,21.9
2018-12-29T05:17:40.715Z,21.9
2018-12-29T05:18:31.341Z,21.9
2018-12-29T05:19:21.637Z,21.9
2018-12-29T05:20:11.425Z,22
2018-12-29T05:21:02.293Z,22
2018-12-29T05:21:51.555Z,22.1
2018-12-29T05:22:41.444Z,22.1
2018-12-29T05:23:31.453Z,22.1
2018-12-29T05:24:22.010Z,22.1
2018-12-29T05:25:11.768Z,22.1
2018-12-29T05:26:02.422Z,22.1
2018-12-29T05:26:52.191Z,22
2018-12-29T05:27:42.212Z,22
2018-12-29T05:28:32.224Z,21.9
2018-12-29T05:29:21.770Z,21.9
2018-12-29T05:30:11.812Z,21.9
2018-12-29T05:31:02.452Z,21.9
2018-12-29T05:31:51.652Z,21.9
2018-12-29T05:32:41.217Z,21.9
2018-12-29T05:33:32.037Z,21.8
2018-12-29T05:34:22.100Z,21.8
2018-12-29T05:35:12.509Z,21.8
2018-12-29T05:36:01.973Z,21.8
2018-12-29T05:36:53.104Z,21.8
2018-12-29T05:37:43.213Z,21.8
2018-12-29T05:38:33.489Z,21.8
2018-12-29T05:39:22.740Z,21.8
2018-12-29T05:40:13.384Z,21.8
2018-12-29T05:41:02.620Z,21.8
2018-12-29T05:41:52.922Z,21.8
2018-12-29T05:42:43.221Z,21.8
2018-12-29T05:43:33.369Z,21.9
2018-12-29T05:44:23.924Z,21.9
2018-12-29T05:45:13.991Z,21.9
2018-12-29T05:46:03.559Z,21.9
2018-12-29T05:46:53.545Z,21.9
2018-12-29T05:47:43.314Z,22
2018-12-29T05:48:34.512Z,22
2018-12-29T05:49:24.014Z,22
2018-12-29T05:50:14.074Z,22
2018-12-29T05:51:04.374Z,21.8
2018-12-29T05:51:54.170Z,21.7
2018-12-29T05:52:42.830Z,21.6
2018-12-29T05:53:34.551Z,21.4
2018-12-29T05:54:24.026Z,21.3
2018-12-29T05:55:13.849Z,21.3
2018-12-29T05:56:04.171Z,21.2
2018-12-29T05:57:44.589Z,21.1
2018-12-29T05:58:34.334Z,21.1
2018-12-29T05:59:25.541Z,21.1
2018-12-29T06:00:14.773Z,21
2018-12-29T06:01:04.241Z,20.9
2018-12-29T06:01:53.768Z,20.9
2018-12-29T06:02:44.606Z,20.9
2018-12-29T06:03:34.653Z,20.9
2018-12-29T06:04:26.697Z,20.9
2018-12-29T06:05:14.515Z,20.9
2018-12-29T06:06:05.115Z,20.9
2018-12-29T06:06:54.890Z,20.8
2018-12-29T06:07:45.068Z,20.8
2018-12-29T06:08:34.812Z,20.8
2018-12-29T06:09:25.060Z,20.8
2018-12-29T06:10:15.477Z,20.8
2018-12-29T06:11:04.648Z,20.8
2018-12-29T06:11:55.790Z,20.8
2018-12-29T06:12:46.367Z,20.8
2018-12-29T06:13:34.894Z,20.8
2018-12-29T06:14:24.802Z,20.8
2018-12-29T06:15:14.912Z,20.8
2018-12-29T06:16:05.507Z,20.8
2018-12-29T06:16:55.596Z,20.8
2018-12-29T06:17:46.202Z,20.8
2018-12-29T06:18:35.692Z,20.8
2018-12-29T06:19:26.079Z,20.9
2018-12-29T06:20:15.567Z,20.9
2018-12-29T06:21:06.212Z,20.8
2018-12-29T06:21:55.939Z,20.9
2018-12-29T06:22:44.889Z,20.8
2018-12-29T06:23:35.472Z,20.9
2018-12-29T06:24:26.382Z,20.8
2018-12-29T06:25:16.004Z,20.8
2018-12-29T06:26:06.005Z,20.8
2018-12-29T06:26:56.326Z,20.8
2018-12-29T06:27:46.584Z,20.8
2018-12-29T06:28:36.109Z,20.8
2018-12-29T06:29:26.149Z,20.8
2018-12-29T06:30:16.041Z,20.8
2018-12-29T06:31:06.274Z,20.8
2018-12-29T06:31:56.578Z,20.8
2018-12-29T06:32:46.188Z,20.8
2018-12-29T06:33:36.154Z,20.8
2018-12-29T06:34:26.763Z,20.8
2018-12-29T06:35:18.338Z,20.8
2018-12-29T06:36:07.121Z,20.8
2018-12-29T06:36:56.966Z,20.8
2018-12-29T06:37:47.005Z,20.8
2018-12-29T06:38:37.595Z,20.8
2018-12-29T06:39:26.298Z,20.8
2018-12-29T06:40:16.918Z,20.8
2018-12-29T06:41:06.168Z,20.8
2018-12-29T06:41:57.628Z,20.8
2018-12-29T06:42:47.186Z,20.8
2018-12-29T06:43:37.127Z,20.9
2018-12-29T06:44:27.768Z,20.8
2018-12-29T06:45:17.515Z,20.9
2018-12-29T06:46:08.220Z,20.9
2018-12-29T06:46:56.793Z,20.9
2018-12-29T06:47:47.408Z,20.9
2018-12-29T06:48:36.957Z,20.9
2018-12-29T06:49:27.522Z,20.9
2018-12-29T06:50:18.437Z,20.9
2018-12-29T06:51:07.675Z,20.9
2018-12-29T06:51:57.969Z,20.9
2018-12-29T06:52:47.767Z,20.9
2018-12-29T06:53:36.978Z,20.9
2018-12-29T06:54:28.245Z,20.9
2018-12-29T06:55:18.403Z,20.8
2018-12-29T06:56:07.950Z,20.8
2018-12-29T06:56:58.577Z,20.8
2018-12-29T06:57:48.900Z,20.8
2018-12-29T06:58:37.884Z,20.8
2018-12-29T06:59:28.532Z,20.8
2018-12-29T07:00:18.752Z,20.9
2018-12-29T07:01:09.192Z,21
2018-12-29T07:01:59.486Z,21
2018-12-29T07:02:47.612Z,21
2018-12-29T07:03:38.832Z,21
2018-12-29T07:04:28.844Z,21
2018-12-29T07:05:18.904Z,21
2018-12-29T07:06:09.460Z,21
2018-12-29T07:06:59.006Z,21
2018-12-29T07:07:47.957Z,20.9
2018-12-29T07:08:38.564Z,20.9
2018-12-29T07:09:27.554Z,20.9
2018-12-29T07:10:20.006Z,20.9
2018-12-29T07:11:09.561Z,20.9
2018-12-29T07:11:58.526Z,20.9
2018-12-29T07:12:48.851Z,20.9
2018-12-29T07:13:38.909Z,20.9
2018-12-29T07:14:28.672Z,20.9
2018-12-29T07:15:18.526Z,20.8
2018-12-29T07:16:09.081Z,20.8
2018-12-29T07:17:00.956Z,20.8
2018-12-29T07:17:49.761Z,20.7
2018-12-29T07:18:39.209Z,20.7
2018-12-29T07:19:29.351Z,20.6
2018-12-29T07:20:19.596Z,20.6
2018-12-29T07:21:09.671Z,20.6
2018-12-29T07:21:59.776Z,20.6
2018-12-29T07:22:50.334Z,20.6
2018-12-29T07:23:39.844Z,20.6
2018-12-29T07:24:29.644Z,20.6
2018-12-29T07:25:20.248Z,20.6
2018-12-29T07:26:09.973Z,20.6
2018-12-29T07:27:00.933Z,20.6
2018-12-29T07:27:50.680Z,20.6
2018-12-29T07:28:40.160Z,20.6
2018-12-29T07:29:34.784Z,20.6
2018-12-29T07:30:20.355Z,20.7
2018-12-29T07:31:11.235Z,20.7
2018-12-29T07:32:00.707Z,20.8
2018-12-29T07:32:51.555Z,20.8
2018-12-29T07:33:40.603Z,20.8
2018-12-29T07:34:30.325Z,20.8
2018-12-29T07:35:22.822Z,20.8
2018-12-29T07:36:11.305Z,20.8
2018-12-29T07:37:00.765Z,20.8
2018-12-29T07:37:51.072Z,20.8
2018-12-29T07:38:40.589Z,20.8
2018-12-29T07:39:30.935Z,20.8
2018-12-29T07:40:20.194Z,20.8
2018-12-29T07:41:11.576Z,20.8
2018-12-29T07:42:02.162Z,20.8
2018-12-29T07:42:51.438Z,20.8
2018-12-29T07:43:41.206Z,20.8
2018-12-29T07:44:31.634Z,20.8
2018-12-29T07:45:21.336Z,20.8
2018-12-29T07:46:10.591Z,20.8
2018-12-29T07:47:01.498Z,20.8
2018-12-29T07:47:51.504Z,20.7
2018-12-29T07:48:42.101Z,20.8
2018-12-29T07:49:31.627Z,20.7
2018-12-29T07:50:21.661Z,20.7
2018-12-29T07:51:11.736Z,20.8
2018-12-29T07:52:02.826Z,20.7
2018-12-29T07:52:51.009Z,20.7
2018-12-29T07:53:42.163Z,20.8
2018-12-29T07:54:32.770Z,20.7
2018-12-29T07:55:22.649Z,20.7
2018-12-29T07:56:11.786Z,20.8
2018-12-29T07:57:02.981Z,20.9
2018-12-29T07:57:52.188Z,21
2018-12-29T07:58:41.953Z,21.1
2018-12-29T07:59:32.566Z,21.1
2018-12-29T08:03:43.157Z,21.1
2018-12-29T08:04:33.455Z,21.1
2018-12-29T08:05:22.972Z,20.9
2018-12-29T08:06:13.300Z,20.9
2018-12-29T08:07:03.572Z,20.8
2018-12-29T08:07:53.365Z,20.8
2018-12-29T08:08:42.352Z,20.8
2018-12-29T08:09:32.663Z,20.8
2018-12-29T08:10:23.097Z,20.8
2018-12-29T08:11:13.104Z,20.8
2018-12-29T08:12:03.834Z,20.8
2018-12-29T08:12:53.179Z,20.7
2018-12-29T08:13:42.767Z,20.7
2018-12-29T08:14:33.854Z,20.7
2018-12-29T08:15:23.364Z,20.8
2018-12-29T08:16:13.687Z,20.7
2018-12-29T08:17:03.796Z,20.7
2018-12-29T08:17:53.528Z,20.7
2018-12-29T08:18:44.494Z,20.7
2018-12-29T08:19:34.453Z,20.7
2018-12-29T08:20:23.951Z,20.7
2018-12-29T08:21:13.756Z,20.7
2018-12-29T08:22:03.827Z,20.8
2018-12-29T08:22:53.897Z,20.7
2018-12-29T08:23:44.991Z,20.8
2018-12-29T08:24:33.999Z,20.8
2018-12-29T08:25:24.028Z,20.8
2018-12-29T08:26:14.418Z,20.7
2018-12-29T08:27:04.421Z,20.8
2018-12-29T08:27:55.018Z,20.8
2018-12-29T08:28:46.003Z,20.8
2018-12-29T08:29:34.063Z,20.8
2018-12-29T08:30:24.125Z,20.8
2018-12-29T08:31:14.203Z,20.8
2018-12-29T08:32:04.810Z,20.8
2018-12-29T08:32:54.908Z,20.8
2018-12-29T08:33:45.151Z,20.8
2018-12-29T08:34:34.416Z,20.8
2018-12-29T08:35:24.786Z,20.8
2018-12-29T08:36:15.433Z,20.8
2018-12-29T08:37:05.673Z,20.8
2018-12-29T08:37:54.128Z,20.8
2018-12-29T08:38:45.768Z,20.8
2018-12-29T08:39:35.017Z,20.8
2018-12-29T08:40:24.587Z,20.8
2018-12-29T08:41:15.761Z,20.8
2018-12-29T08:42:04.732Z,20.8
2018-12-29T08:42:54.681Z,20.8
2018-12-29T08:43:45.890Z,20.8
2018-12-29T08:44:35.055Z,20.8
2018-12-29T08:45:25.957Z,20.7
2018-12-29T08:46:15.480Z,20.8
2018-12-29T08:47:11.425Z,20.8
2018-12-29T08:47:56.183Z,20.8
2018-12-29T08:48:45.114Z,20.8
2018-12-29T08:49:34.883Z,20.8
2018-12-29T08:50:26.572Z,20.8
2018-12-29T08:51:15.800Z,20.8
2018-12-29T08:52:05.888Z,20.8
2018-12-29T08:52:55.889Z,20.8
2018-12-29T08:53:45.502Z,20.8
2018-12-29T08:54:35.822Z,20.8
2018-12-29T08:55:26.097Z,20.8
2018-12-29T08:56:16.171Z,20.8
2018-12-29T08:57:06.002Z,20.8
2018-12-29T08:57:56.582Z,20.8
2018-12-29T08:58:46.630Z,20.8
2018-12-29T08:59:36.994Z,20.8
2018-12-29T09:00:26.179Z,20.8
2018-12-29T09:17:03.613Z,20.8
2018-12-29T09:17:52.613Z,20.8
2018-12-29T09:18:50.208Z,20.8
2018-12-29T09:19:33.548Z,20.8
2018-12-29T09:20:23.503Z,20.8
2018-12-29T09:21:12.760Z,20.8
2018-12-29T09:22:03.061Z,20.8
2018-12-29T09:22:53.107Z,20.8
2018-12-29T09:23:43.190Z,20.8
2018-12-29T09:24:33.818Z,20.8
2018-12-29T09:25:23.553Z,20.8
2018-12-29T09:26:13.364Z,20.8
2018-12-29T09:27:03.197Z,20.8
2018-12-29T09:27:53.486Z,20.9
2018-12-29T09:28:43.250Z,20.9
2018-12-29T09:29:33.057Z,20.9
2018-12-29T09:30:22.523Z,20.8
2018-12-29T09:31:13.434Z,20.8
2018-12-29T09:32:03.617Z,20.8
2018-12-29T09:32:54.437Z,20.8
2018-12-29T09:33:43.887Z,20.8
2018-12-29T09:34:33.362Z,20.8
2018-12-29T09:35:23.227Z,20.8
2018-12-29T09:36:13.542Z,20.8
2018-12-29T09:37:04.080Z,20.8
2018-12-29T09:37:53.595Z,20.8
2018-12-29T09:38:43.927Z,20.8
2018-12-29T09:39:34.242Z,20.9
2018-12-29T09:40:23.559Z,20.8
2018-12-29T09:41:14.650Z,20.9
2018-12-29T09:42:03.944Z,20.9
2018-12-29T09:42:53.384Z,20.9
2018-12-29T09:43:44.345Z,20.9
2018-12-29T09:44:34.129Z,20.9
2018-12-29T09:45:24.666Z,20.9
2018-12-29T09:46:14.185Z,20.9
2018-12-29T09:47:04.831Z,20.9
2018-12-29T09:47:54.561Z,20.9
2018-12-29T09:48:44.112Z,20.8
2018-12-29T09:49:34.936Z,20.8
2018-12-29T09:50:24.191Z,20.8
2018-12-29T09:51:15.044Z,20.9
2018-12-29T09:52:05.152Z,20.8
2018-12-29T09:52:55.743Z,20.8
2018-12-29T09:53:45.796Z,20.8
2018-12-29T09:54:34.773Z,20.8
2018-12-29T09:55:25.378Z,20.8
2018-12-29T09:56:15.210Z,20.8
2018-12-29T09:57:04.164Z,20.8
2018-12-29T09:57:55.515Z,20.8
2018-12-29T09:58:45.848Z,20.8
2018-12-29T09:59:36.289Z,20.8
2018-12-29T10:00:24.597Z,20.8
2018-12-29T10:01:15.837Z,20.9
2018-12-29T10:02:05.860Z,21
2018-12-29T10:02:56.437Z,21.1
2018-12-29T10:03:45.682Z,21.1
2018-12-29T10:04:34.372Z,21.1
2018-12-29T10:05:26.323Z,21.1
2018-12-29T10:07:55.664Z,21.1
2018-12-29T10:08:46.597Z,21
2018-12-29T10:09:35.531Z,20.9
2018-12-29T10:10:26.380Z,20.9
2018-12-29T10:11:16.508Z,20.9
2018-12-29T10:12:06.207Z,20.9
2018-12-29T10:12:56.550Z,20.9
2018-12-29T10:13:46.947Z,20.9
2018-12-29T10:14:36.654Z,20.9
2018-12-29T10:15:25.678Z,20.8
2018-12-29T10:16:16.307Z,20.9
2018-12-29T10:17:06.352Z,20.9
2018-12-29T10:17:56.424Z,20.8
2018-12-29T10:18:47.479Z,20.8
2018-12-29T10:19:36.739Z,20.8
2018-12-29T10:20:27.364Z,20.8
2018-12-29T10:21:16.292Z,20.8
2018-12-29T10:22:06.669Z,20.8
2018-12-29T10:22:56.778Z,20.8
2018-12-29T10:23:47.032Z,20.8
2018-12-29T10:24:37.881Z,20.8
2018-12-29T10:25:28.054Z,20.8
2018-12-29T10:26:17.491Z,20.8
2018-12-29T10:27:07.229Z,20.8
2018-12-29T10:27:58.141Z,20.8
2018-12-29T10:28:47.729Z,20.8
2018-12-29T10:29:37.746Z,20.8
2018-12-29T10:30:27.575Z,20.8
2018-12-29T10:31:18.094Z,20.8
2018-12-29T10:32:08.136Z,20.8
2018-12-29T10:32:57.878Z,20.8
2018-12-29T10:33:46.388Z,20.8
2018-12-29T10:34:37.558Z,20.8
2018-12-29T10:35:42.183Z,20.8
2018-12-29T10:36:18.401Z,20.8
2018-12-29T10:37:08.489Z,20.8
2018-12-29T10:37:58.798Z,20.8
2018-12-29T10:38:47.308Z,20.8
2018-12-29T10:39:37.725Z,20.8
2018-12-29T10:40:28.200Z,20.8
2018-12-29T10:41:18.629Z,20.9
2018-12-29T10:42:07.838Z,20.9
2018-12-29T10:42:57.874Z,20.9
2018-12-29T10:43:48.137Z,20.9
2018-12-29T10:44:38.525Z,20.8
2018-12-29T10:45:28.295Z,20.8
2018-12-29T10:46:19.360Z,20.8
2018-12-29T10:47:08.131Z,20.8
2018-12-29T10:47:58.178Z,20.8
2018-12-29T10:48:49.112Z,20.8
2018-12-29T10:49:39.323Z,20.8
2018-12-29T10:50:28.660Z,20.8
2018-12-29T10:51:19.507Z,20.8
2018-12-29T10:52:08.252Z,20.8
2018-12-29T10:52:58.870Z,20.8
2018-12-29T10:53:48.592Z,20.8
2018-12-29T10:54:39.016Z,20.8
2018-12-29T10:55:28.480Z,20.8
2018-12-29T10:56:18.502Z,20.8
2018-12-29T10:57:08.589Z,20.8
2018-12-29T10:57:58.584Z,20.8
2018-12-29T10:58:49.101Z,20.8
2018-12-29T10:59:39.264Z,20.8
2018-12-29T11:00:37.346Z,20.8
2018-12-29T11:01:19.143Z,20.8
2018-12-29T11:02:09.418Z,20.8
2018-12-29T11:02:59.304Z,20.8
2018-12-29T11:03:49.281Z,20.8
2018-12-29T11:04:39.853Z,20.8
2018-12-29T11:05:29.678Z,20.8
2018-12-29T11:06:19.508Z,20.8
2018-12-29T11:07:08.811Z,20.8
2018-12-29T11:07:59.381Z,20.8
2018-12-29T11:08:49.423Z,20.9
2018-12-29T11:09:39.750Z,20.9
2018-12-29T11:10:28.997Z,20.9
2018-12-29T11:11:19.996Z,20.8
2018-12-29T11:12:10.842Z,20.9
2018-12-29T11:13:00.435Z,20.8
2018-12-29T11:13:49.963Z,20.8
2018-12-29T11:14:39.916Z,20.8
2018-12-29T11:15:30.078Z,20.8
2018-12-29T11:16:20.392Z,20.8
2018-12-29T11:17:10.946Z,20.8
2018-12-29T11:17:59.979Z,20.8
2018-12-29T11:18:52.550Z,20.8
2018-12-29T11:19:40.730Z,20.8
2018-12-29T11:20:31.261Z,20.8
2018-12-29T11:21:21.003Z,20.8
2018-12-29T11:22:10.568Z,20.8
2018-12-29T11:23:00.615Z,20.8
2018-12-29T11:23:51.327Z,20.8
2018-12-29T11:24:43.539Z,20.8
2018-12-29T11:25:31.302Z,20.8
2018-12-29T11:26:21.367Z,20.8
2018-12-29T11:27:10.952Z,20.8
2018-12-29T11:28:00.655Z,20.8
2018-12-29T11:28:53.252Z,20.8
2018-12-29T11:29:41.050Z,20.8
2018-12-29T11:30:31.843Z,20.8
2018-12-29T11:31:22.002Z,20.9
2018-12-29T11:32:11.677Z,20.9
2018-12-29T11:33:01.546Z,20.9
2018-12-29T11:33:50.532Z,20.9
2018-12-29T11:34:41.574Z,20.8
2018-12-29T11:35:35.704Z,20.8
2018-12-29T11:36:21.769Z,20.8
2018-12-29T11:37:11.056Z,20.8
2018-12-29T11:38:02.671Z,20.8
2018-12-29T11:38:52.682Z,20.8
2018-12-29T11:39:41.916Z,20.8
2018-12-29T11:40:32.534Z,20.8
2018-12-29T11:41:21.551Z,20.8
2018-12-29T11:42:12.419Z,20.8
2018-12-29T11:43:01.849Z,20.8
2018-12-29T11:43:52.754Z,20.8
2018-12-29T11:44:43.151Z,20.8
2018-12-29T11:45:32.297Z,20.8
2018-12-29T11:46:21.939Z,20.8
2018-12-29T11:47:13.486Z,20.8
2018-12-29T11:48:02.761Z,20.8
2018-12-29T11:48:55.464Z,20.8
2018-12-29T11:49:43.316Z,20.8
2018-12-29T11:50:33.406Z,20.9
2018-12-29T11:51:22.932Z,20.9
2018-12-29T11:52:15.026Z,20.9
2018-12-29T11:53:03.326Z,20.8
2018-12-29T11:53:53.348Z,20.8
2018-12-29T11:54:42.834Z,20.8
2018-12-29T11:55:35.316Z,20.8
2018-12-29T11:56:23.850Z,20.8
2018-12-29T11:57:14.088Z,20.8
2018-12-29T11:58:04.404Z,20.8
2018-12-29T11:58:56.002Z,20.8
2018-12-29T11:59:43.430Z,20.8
2018-12-29T12:00:48.657Z,20.8
2018-12-29T12:01:23.581Z,20.8
2018-12-29T12:02:15.523Z,20.8
2018-12-29T12:03:04.206Z,20.8
2018-12-29T12:03:54.260Z,20.7
2018-12-29T12:04:43.748Z,20.7
2018-12-29T12:05:34.120Z,20.8